Time;durP1;ratioP1;P1;durP2;ratioP2;P2;SDS_P1;SDS_P2;PMS_P1;PMS_P2;Temp;Humidity;BMP_temperature;BMP_pressure;BME280_temperature;BME280_humidity;BME280_pressure;Samples;Min_cycle;Max_cycle;Signal;HPM_P1;HPM_P2
2022/11/05 00:10:27;;;;;;;9.65;3.20;;;7.00;99.90;;;;;;5025268;28;20041;-66
2022/11/05 00:18:31;;;;;;;7.85;3.30;;;7.30;99.90;;;;;;5011911;28;20163;-66
2022/11/05 00:20:57;;;;;;;7.53;3.33;;;7.40;99.90;;;;;;5029396;28;20116;-66
2022/11/05 00:26:10;;;;;;;8.57;3.38;;;7.50;99.90;;;;;;5008286;28;20046;-65
2022/11/05 00:28:35;;;;;;;11.75;3.65;;;7.50;99.90;;;;;;5028325;28;20748;-65
2022/11/05 00:31:10;;;;;;;8.07;2.92;;;7.50;99.90;;;;;;5029359;28;20124;-65
2022/11/05 00:33:37;;;;;;;11.15;3.30;;;7.50;99.90;;;;;;5012395;28;20033;-66
2022/11/05 00:36:04;;;;;;;11.25;3.50;;;7.50;99.90;;;;;;5033543;28;20449;-63
2022/11/05 00:38:31;;;;;;;8.98;3.40;;;7.50;99.90;;;;;;5029150;28;20041;-64
2022/11/05 00:40:56;;;;;;;6.85;3.00;;;7.50;99.90;;;;;;5012383;28;20479;-65
2022/11/05 00:46:06;;;;;;;8.25;3.60;;;7.50;99.90;;;;;;5008271;28;20049;-65
2022/11/05 00:51:16;;;;;;;9.80;3.53;;;7.40;99.90;;;;;;5026656;28;20274;-63
2022/11/05 00:53:42;;;;;;;7.85;3.40;;;7.40;99.90;;;;;;4996039;28;20504;-63
2022/11/05 00:56:07;;;;;;;8.77;3.45;;;7.30;99.90;;;;;;5009522;28;20041;-63
2022/11/05 00:58:33;;;;;;;9.40;3.50;;;7.30;99.90;;;;;;5028742;28;20458;-63
2022/11/05 01:01:00;;;;;;;8.60;3.65;;;7.40;99.90;;;;;;5028696;28;20040;-65
2022/11/05 01:03:32;;;;;;;6.90;3.17;;;7.30;99.90;;;;;;5010513;28;20430;-65
2022/11/05 01:06:05;;;;;;;7.53;3.42;;;7.30;99.90;;;;;;5029679;28;20042;-65
2022/11/05 01:08:31;;;;;;;6.85;2.85;;;7.30;99.90;;;;;;5010795;28;20103;-65
2022/11/05 01:10:57;;;;;;;7.70;3.10;;;7.30;99.90;;;;;;5011524;28;20033;-65
2022/11/05 01:13:29;;;;;;;6.93;3.00;;;7.30;99.90;;;;;;5049396;22;20044;-77
2022/11/05 01:15:56;;;;;;;7.80;3.20;;;7.20;99.90;;;;;;4989925;28;20041;-77
2022/11/05 01:18:22;;;;;;;7.60;3.03;;;7.20;99.90;;;;;;5013609;28;20037;-76
2022/11/05 01:20:49;;;;;;;8.55;3.00;;;7.20;99.90;;;;;;5016772;28;20037;-76
2022/11/05 01:23:15;;;;;;;9.32;3.42;;;7.10;99.90;;;;;;5004741;28;20175;-76
2022/11/05 01:25:42;;;;;;;10.68;3.35;;;7.10;99.90;;;;;;5004581;28;20036;-76
2022/11/05 01:28:08;;;;;;;7.72;3.05;;;7.10;99.90;;;;;;4998486;28;20124;-76
2022/11/05 01:30:34;;;;;;;6.20;3.05;;;7.00;99.90;;;;;;4995612;28;20045;-77
2022/11/05 01:32:59;;;;;;;7.63;3.25;;;7.00;99.90;;;;;;4997231;28;20221;-77
2022/11/05 01:35:25;;;;;;;6.47;3.00;;;7.00;99.90;;;;;;5014575;28;20038;-78
2022/11/05 01:37:51;;;;;;;5.53;2.65;;;7.00;99.90;;;;;;4995666;28;20077;-77
2022/11/05 01:40:20;;;;;;;4.32;2.85;;;7.00;99.90;;;;;;4995707;28;20561;-77
2022/11/05 01:42:46;;;;;;;5.38;3.00;;;6.90;99.90;;;;;;4996521;28;20139;-77
2022/11/05 01:45:24;;;;;;;12.80;3.42;;;6.90;99.90;;;;;;4995271;28;20754;-77
2022/11/05 01:48:24;;;;;;;5.72;3.13;;;6.90;99.90;;;;;;4996018;28;20041;-78
2022/11/05 01:51:17;;;;;;;7.22;3.08;;;6.90;99.90;;;;;;4950312;28;20050;-77
2022/11/05 01:53:52;;;;;;;13.05;3.55;;;6.90;99.90;;;;;;4993862;28;20141;-78
2022/11/05 01:56:22;;;;;;;7.20;3.50;;;6.90;99.90;;;;;;4992570;28;20135;-76
2022/11/05 01:59:07;;;;;;;9.32;3.83;;;6.90;99.90;;;;;;4995764;28;20038;-77
2022/11/05 02:01:32;;;;;;;7.30;3.45;;;6.90;99.90;;;;;;4980053;28;20778;-77
2022/11/05 02:04:03;;;;;;;8.70;3.95;;;6.80;99.90;;;;;;4996369;28;20048;-76
2022/11/05 02:06:31;;;;;;;7.38;4.00;;;6.60;99.90;;;;;;4996083;28;20120;-78
2022/11/05 02:09:11;;;;;;;9.68;4.13;;;6.80;99.90;;;;;;4996029;28;20046;-78
2022/11/05 02:11:37;;;;;;;8.63;3.70;;;6.80;99.90;;;;;;4994447;28;20493;-78
2022/11/05 02:14:03;;;;;;;9.60;4.03;;;6.80;99.90;;;;;;5000678;28;20049;-78
2022/11/05 02:16:45;;;;;;;9.00;3.95;;;6.80;99.90;;;;;;4999495;28;20588;-78
2022/11/05 02:19:29;;;;;;;6.60;3.38;;;6.80;99.90;;;;;;4999873;28;20053;-79
2022/11/05 02:22:25;;;;;;;7.85;3.65;;;6.80;99.90;;;;;;4990830;28;20072;-76
2022/11/05 02:25:14;;;;;;;7.32;3.63;;;6.80;99.90;;;;;;4995521;28;20033;-77
2022/11/05 02:28:10;;;;;;;6.72;3.85;;;6.80;99.90;;;;;;4978201;28;20045;-77
2022/11/05 02:31:03;;;;;;;6.68;3.60;;;6.70;99.90;;;;;;4994859;28;20106;-77
2022/11/05 02:33:55;;;;;;;8.65;3.72;;;6.70;99.90;;;;;;4995968;28;20030;-77
2022/11/05 02:36:48;;;;;;;6.25;3.28;;;7.40;99.90;;;;;;4995054;28;20034;-79
2022/11/05 02:39:40;;;;;;;7.13;3.47;;;6.70;99.90;;;;;;4994927;28;20045;-77
2022/11/05 02:42:34;;;;;;;8.73;3.67;;;6.70;99.90;;;;;;4989737;28;20045;-77
2022/11/05 02:45:39;;;;;;;7.60;3.13;;;6.70;99.90;;;;;;4995024;28;20045;-77
2022/11/05 02:48:39;;;;;;;8.13;3.25;;;6.70;99.90;;;;;;4991436;28;20037;-77
2022/11/05 02:51:36;;;;;;;6.13;3.38;;;6.70;99.90;;;;;;4991061;28;20038;-77
2022/11/05 02:54:18;;;;;;;7.40;3.22;;;6.70;99.90;;;;;;4998663;28;20042;-77
2022/11/05 02:56:47;;;;;;;7.67;3.60;;;6.70;99.90;;;;;;4993696;28;20540;-77
2022/11/05 02:59:12;;;;;;;10.43;3.58;;;6.70;99.90;;;;;;4994538;28;20050;-76
2022/11/05 03:01:40;;;;;;;9.00;3.65;;;6.70;99.90;;;;;;4995510;28;20490;-77
2022/11/05 03:04:08;;;;;;;8.88;4.00;;;6.70;99.90;;;;;;4989058;28;20041;-77
2022/11/05 03:06:53;;;;;;;7.25;3.40;;;6.70;99.90;;;;;;4994942;28;20076;-77
2022/11/05 03:09:46;;;;;;;9.00;4.05;;;6.70;99.90;;;;;;4977932;28;20038;-77
2022/11/05 03:12:24;;;;;;;7.15;3.40;;;6.70;99.90;;;;;;4973076;28;20042;-77
2022/11/05 03:15:13;;;;;;;9.93;3.60;;;6.70;99.90;;;;;;4990919;28;20486;-77
2022/11/05 03:17:46;;;;;;;7.32;3.42;;;6.70;99.90;;;;;;4982065;28;20053;-77
2022/11/05 03:20:15;;;;;;;7.93;3.92;;;6.70;99.90;;;;;;4991663;28;20042;-77
2022/11/05 03:22:48;;;;;;;8.13;3.72;;;6.70;99.90;;;;;;4986859;28;20505;-77
2022/11/05 03:25:20;;;;;;;9.93;3.70;;;6.70;99.90;;;;;;4993090;28;20038;-77
2022/11/05 03:27:49;;;;;;;9.02;4.20;;;6.70;99.90;;;;;;4993242;28;20048;-77
2022/11/05 03:30:17;;;;;;;9.57;3.92;;;6.70;99.90;;;;;;4993208;28;20413;-77
2022/11/05 03:32:52;;;;;;;9.23;3.70;;;6.70;99.90;;;;;;4992349;28;20045;-77
2022/11/05 03:35:30;;;;;;;8.02;4.07;;;6.70;99.90;;;;;;4994736;28;20084;-77
2022/11/05 03:38:02;;;;;;;9.27;3.97;;;6.60;99.90;;;;;;4988075;28;20073;-77
2022/11/05 03:40:32;;;;;;;8.50;3.55;;;6.60;99.90;;;;;;4994311;28;20038;-77
2022/11/05 03:42:59;;;;;;;8.73;3.95;;;6.60;99.90;;;;;;4994770;28;20046;-77
2022/11/05 03:45:29;;;;;;;9.20;3.97;;;6.60;99.90;;;;;;4993736;28;20120;-77
2022/11/05 03:47:58;;;;;;;6.38;3.35;;;6.60;99.90;;;;;;4994383;28;20038;-77
2022/11/05 03:50:44;;;;;;;7.20;3.63;;;6.60;99.90;;;;;;4992264;28;20037;-77
2022/11/05 03:53:15;;;;;;;7.07;3.80;;;6.60;99.90;;;;;;4988116;28;20038;-77
2022/11/05 03:56:00;;;;;;;10.35;4.28;;;6.70;99.90;;;;;;5003314;28;20045;-77
2022/11/05 03:58:26;;;;;;;9.40;3.65;;;6.50;99.90;;;;;;4991547;28;20053;-77
2022/11/05 04:00:57;;;;;;;13.73;4.65;;;6.50;99.90;;;;;;4994486;28;20045;-77
2022/11/05 04:03:23;;;;;;;6.45;3.58;;;6.50;99.90;;;;;;4992097;28;20049;-77
2022/11/05 04:13:22;;;;;;;8.02;3.88;;;6.50;99.90;;;;;;4993298;28;20034;-77
2022/11/05 04:14:03;;;;;;;8.55;3.78;;;6.50;99.90;;;;;;4993401;28;20096;-77
2022/11/05 04:24:06;;;;;;;6.32;3.55;;;6.40;99.90;;;;;;4993655;28;20136;-77
2022/11/05 04:24:56;;;;;;;6.45;3.15;;;6.40;99.90;;;;;;4963929;28;20505;-77
2022/11/05 04:27:21;;;;;;;6.13;3.35;;;6.40;99.90;;;;;;5009402;28;20042;-77
2022/11/05 04:32:31;;;;;;;6.63;3.05;;;6.40;99.90;;;;;;4990099;28;20056;-77
2022/11/05 04:34:57;;;;;;;6.95;3.38;;;6.40;99.90;;;;;;4992621;28;20401;-77
2022/11/05 04:37:22;;;;;;;7.53;3.10;;;6.60;99.90;;;;;;4993816;28;20152;-77
2022/11/05 04:39:48;;;;;;;9.20;2.95;;;6.40;99.90;;;;;;4997515;28;20052;-78
2022/11/05 04:42:13;;;;;;;7.38;2.92;;;6.40;99.90;;;;;;4992393;28;20501;-78
2022/11/05 04:44:39;;;;;;;7.82;3.30;;;6.40;99.90;;;;;;4993677;28;20050;-78
2022/11/05 04:47:05;;;;;;;6.53;2.90;;;6.40;99.90;;;;;;4992604;28;20049;-79
2022/11/05 04:49:30;;;;;;;6.25;2.95;;;6.40;99.90;;;;;;4975987;28;20045;-77
2022/11/05 04:51:56;;;;;;;7.95;2.90;;;6.40;99.90;;;;;;4994163;28;20034;-78
2022/11/05 04:54:21;;;;;;;5.50;2.80;;;6.40;99.90;;;;;;4999742;28;20470;-77
2022/11/05 04:56:47;;;;;;;6.78;3.05;;;6.40;99.90;;;;;;5000104;28;20038;-77
2022/11/05 04:59:12;;;;;;;9.05;3.25;;;6.30;99.90;;;;;;4999904;28;20088;-77
2022/11/05 05:01:38;;;;;;;5.60;2.80;;;6.40;99.90;;;;;;4989448;28;20485;-77
2022/11/05 05:04:03;;;;;;;9.80;3.30;;;6.30;99.90;;;;;;4998646;28;20405;-77
2022/11/05 05:06:29;;;;;;;11.13;3.10;;;6.40;99.90;;;;;;4992856;28;20095;-77
2022/11/05 05:08:55;;;;;;;5.45;2.78;;;6.40;99.90;;;;;;4999582;28;20052;-77
2022/11/05 05:11:21;;;;;;;8.57;2.80;;;6.40;99.90;;;;;;4983069;28;20481;-77
2022/11/05 05:13:47;;;;;;;6.25;3.00;;;6.40;99.90;;;;;;4996939;28;20069;-77
2022/11/05 05:16:24;;;;;;;6.90;3.33;;;6.40;99.90;;;;;;4998430;28;20119;-77
2022/11/05 05:18:50;;;;;;;6.93;2.60;;;6.30;99.90;;;;;;4997354;28;20375;-77
2022/11/05 05:24:02;;;;;;;7.95;3.60;;;6.30;99.90;;;;;;4994861;28;20050;-77
2022/11/05 05:26:27;;;;;;;8.27;3.00;;;6.30;99.90;;;;;;4999783;28;20034;-77
2022/11/05 05:28:53;;;;;;;5.20;2.75;;;6.30;99.90;;;;;;5002118;28;20030;-77
2022/11/05 05:31:20;;;;;;;6.93;3.08;;;6.30;99.90;;;;;;4982604;28;20034;-77
2022/11/05 05:33:46;;;;;;;5.13;2.97;;;6.30;99.90;;;;;;4997663;28;20042;-77
2022/11/05 05:36:13;;;;;;;9.02;3.05;;;6.30;99.90;;;;;;4999858;28;20052;-77
2022/11/05 05:38:39;;;;;;;8.45;3.53;;;6.30;99.90;;;;;;4994102;28;20037;-77
2022/11/05 05:41:05;;;;;;;7.60;3.28;;;6.20;99.90;;;;;;4999706;28;20064;-77
2022/11/05 05:43:33;;;;;;;7.43;3.38;;;6.30;99.90;;;;;;4999354;28;20045;-77
2022/11/05 05:46:07;;;;;;;5.95;3.20;;;6.30;99.90;;;;;;4994432;28;20101;-77
2022/11/05 05:48:33;;;;;;;6.00;3.50;;;6.30;99.90;;;;;;5006055;28;20046;-77
2022/11/05 05:51:10;;;;;;;8.93;3.80;;;6.30;99.90;;;;;;4999259;28;20030;-77
2022/11/05 05:53:36;;;;;;;8.52;3.65;;;6.30;99.90;;;;;;5002069;28;20029;-77
2022/11/05 05:56:02;;;;;;;8.35;3.55;;;6.40;99.90;;;;;;4997767;28;20516;-78
2022/11/05 05:58:37;;;;;;;6.78;3.60;;;6.40;99.90;;;;;;4998358;28;20438;-77
2022/11/05 06:01:07;;;;;;;7.97;3.92;;;6.40;99.90;;;;;;4993777;28;20042;-77
2022/11/05 06:03:33;;;;;;;5.93;3.75;;;6.40;99.90;;;;;;4976906;28;20401;-78
2022/11/05 06:06:04;;;;;;;7.47;4.00;;;6.50;99.90;;;;;;4996650;28;20038;-78
2022/11/05 06:08:30;;;;;;;13.68;3.90;;;6.50;99.90;;;;;;5012706;28;20431;-77
2022/11/05 06:10:57;;;;;;;9.63;3.80;;;6.50;99.90;;;;;;4996615;28;20030;-78
2022/11/05 06:13:22;;;;;;;9.27;3.45;;;6.50;99.90;;;;;;5013463;28;20030;-78
2022/11/05 06:15:48;;;;;;;9.38;3.88;;;6.50;99.90;;;;;;4996507;28;20163;-77
2022/11/05 06:18:14;;;;;;;7.57;3.60;;;6.50;99.90;;;;;;4993666;28;20041;-77
2022/11/05 06:20:39;;;;;;;8.75;4.55;;;6.50;99.90;;;;;;4996229;28;20097;-77
2022/11/05 06:23:05;;;;;;;6.35;3.60;;;6.50;99.90;;;;;;4995737;28;20510;-77
2022/11/05 06:25:31;;;;;;;9.43;3.50;;;6.50;99.90;;;;;;4995176;28;20132;-77
2022/11/05 06:27:56;;;;;;;6.50;3.80;;;6.50;99.90;;;;;;4996062;28;20045;-77
2022/11/05 06:30:22;;;;;;;10.55;4.10;;;6.50;99.90;;;;;;4994552;28;20042;-77
2022/11/05 06:32:48;;;;;;;7.55;4.07;;;6.40;99.90;;;;;;4989532;28;20038;-77
2022/11/05 06:35:14;;;;;;;8.00;3.90;;;6.40;99.90;;;;;;4991301;28;20044;-76
2022/11/05 06:37:40;;;;;;;9.57;4.00;;;6.30;99.90;;;;;;4994707;28;20505;-76
2022/11/05 06:40:07;;;;;;;9.40;3.85;;;6.30;99.90;;;;;;4995863;28;20125;-76
2022/11/05 06:42:32;;;;;;;7.55;4.05;;;6.30;99.90;;;;;;4994811;28;20053;-76
2022/11/05 06:44:58;;;;;;;6.88;4.00;;;6.30;99.90;;;;;;4994634;28;20041;-76
2022/11/05 06:47:23;;;;;;;11.07;4.47;;;6.30;99.90;;;;;;4995590;28;20049;-77
2022/11/05 06:49:49;;;;;;;7.55;4.18;;;6.20;99.90;;;;;;4995479;28;20125;-77
2022/11/05 06:52:15;;;;;;;9.23;4.20;;;6.20;99.90;;;;;;4995575;28;20046;-78
2022/11/05 06:54:42;;;;;;;8.68;4.30;;;6.20;99.90;;;;;;5001482;28;20076;-78
2022/11/05 06:57:09;;;;;;;9.88;4.22;;;6.20;99.90;;;;;;4998261;28;20073;-78
2022/11/05 06:59:36;;;;;;;8.75;4.68;;;6.30;99.90;;;;;;4993339;28;20042;-78
2022/11/05 07:02:02;;;;;;;8.82;4.20;;;6.20;99.90;;;;;;4995534;28;20045;-78
2022/11/05 07:04:27;;;;;;;7.45;4.35;;;6.20;99.90;;;;;;4978832;28;20038;-78
2022/11/05 07:06:53;;;;;;;7.03;4.00;;;6.20;99.90;;;;;;4994223;28;20088;-78
2022/11/05 07:09:18;;;;;;;8.00;4.22;;;6.20;99.90;;;;;;4992409;28;20144;-78
2022/11/05 07:11:44;;;;;;;7.05;3.88;;;6.20;99.90;;;;;;4994906;28;20034;-78
2022/11/05 07:14:09;;;;;;;8.82;4.65;;;6.20;99.90;;;;;;4994634;28;20108;-78
2022/11/05 07:16:35;;;;;;;10.10;4.35;;;6.20;99.90;;;;;;4992267;28;20048;-78
2022/11/05 07:19:00;;;;;;;9.30;4.57;;;6.20;99.90;;;;;;5008868;28;20116;-78
2022/11/05 07:21:27;;;;;;;8.10;4.40;;;6.40;99.90;;;;;;4993742;28;20041;-78
2022/11/05 07:23:53;;;;;;;8.48;4.32;;;6.20;99.90;;;;;;4994911;28;20065;-78
2022/11/05 07:26:19;;;;;;;13.45;4.70;;;6.20;99.90;;;;;;5012746;28;20042;-77
2022/11/05 07:28:44;;;;;;;7.50;4.53;;;6.30;99.90;;;;;;4996495;28;20057;-78
2022/11/05 07:31:10;;;;;;;8.38;4.63;;;6.30;99.90;;;;;;4986591;28;20038;-78
2022/11/05 07:33:36;;;;;;;9.60;4.60;;;6.30;99.90;;;;;;4986493;28;20038;-78
2022/11/05 07:36:01;;;;;;;9.10;4.82;;;6.30;99.90;;;;;;4981769;28;20077;-79
2022/11/05 07:38:27;;;;;;;8.35;5.07;;;6.30;99.90;;;;;;5000955;28;20076;-78
2022/11/05 07:40:52;;;;;;;8.27;4.82;;;6.30;99.90;;;;;;4997341;28;20486;-78
2022/11/05 07:43:18;;;;;;;8.02;4.68;;;6.30;99.90;;;;;;4991669;28;20034;-77
2022/11/05 07:45:44;;;;;;;10.32;4.85;;;6.30;99.90;;;;;;4992359;28;20490;-78
2022/11/05 07:48:10;;;;;;;10.38;4.90;;;6.30;99.90;;;;;;4994295;28;20065;-78
2022/11/05 07:50:36;;;;;;;9.45;5.25;;;6.40;99.90;;;;;;4994113;28;20029;-77
2022/11/05 07:53:08;;;;;;;10.63;5.40;;;6.40;99.90;;;;;;4989820;28;20045;-78
2022/11/05 07:55:34;;;;;;;7.80;5.20;;;6.40;99.90;;;;;;4992795;28;20034;-78
2022/11/05 07:58:00;;;;;;;9.05;4.75;;;6.40;99.90;;;;;;4992595;28;20456;-78
2022/11/05 08:00:26;;;;;;;10.82;5.32;;;6.50;99.90;;;;;;4976793;28;20556;-78
2022/11/05 08:03:11;;;;;;;10.63;5.43;;;6.50;99.90;;;;;;4993998;28;20073;-78
2022/11/05 08:05:39;;;;;;;10.93;5.53;;;6.50;99.90;;;;;;4993801;28;20065;-78
2022/11/05 08:08:07;;;;;;;10.30;5.18;;;6.50;99.90;;;;;;4991144;28;20038;-78
2022/11/05 08:10:33;;;;;;;14.05;5.43;;;6.60;99.90;;;;;;4986998;28;20124;-78
2022/11/05 08:13:00;;;;;;;9.77;5.15;;;6.60;99.90;;;;;;5005623;28;20038;-78
2022/11/05 08:15:26;;;;;;;9.45;5.85;;;6.60;99.90;;;;;;4991532;28;20030;-78
2022/11/05 08:18:18;;;;;;;11.45;5.25;;;6.70;99.90;;;;;;4993628;28;20600;-78
2022/11/05 08:20:45;;;;;;;8.63;5.55;;;6.70;99.90;;;;;;4984576;28;20176;-78
2022/11/05 08:23:10;;;;;;;8.93;5.75;;;6.80;99.90;;;;;;4988442;28;20046;-77
2022/11/05 08:25:36;;;;;;;10.65;5.82;;;6.80;99.90;;;;;;4991668;28;20048;-78
2022/11/05 08:28:09;;;;;;;10.75;5.88;;;7.00;99.90;;;;;;4990667;28;20045;-78
2022/11/05 08:30:34;;;;;;;10.60;5.35;;;7.00;99.90;;;;;;4993377;28;20121;-78
2022/11/05 08:33:03;;;;;;;9.68;5.63;;;7.00;99.90;;;;;;4975625;28;20121;-78
2022/11/05 08:35:29;;;;;;;11.10;5.72;;;7.00;99.90;;;;;;4992795;28;20036;-78
2022/11/05 08:38:01;;;;;;;8.68;5.68;;;7.20;99.90;;;;;;4990440;28;20481;-79
2022/11/05 08:40:28;;;;;;;12.23;6.10;;;7.20;99.90;;;;;;4992795;28;20125;-79
2022/11/05 08:42:58;;;;;;;10.00;5.70;;;7.20;99.90;;;;;;4976925;28;20038;-79
2022/11/05 08:45:25;;;;;;;10.63;5.63;;;7.30;99.90;;;;;;4978883;28;20034;-79
2022/11/05 08:47:57;;;;;;;14.02;5.93;;;7.40;99.90;;;;;;4975146;28;20045;-79
2022/11/05 08:50:22;;;;;;;11.07;5.60;;;7.40;99.90;;;;;;4980821;28;20046;-79
2022/11/05 08:52:48;;;;;;;10.88;5.80;;;7.50;99.90;;;;;;4980266;28;20785;-79
2022/11/05 08:55:17;;;;;;;11.60;5.50;;;7.60;99.90;;;;;;4982845;28;20125;-79
2022/11/05 08:57:46;;;;;;;7.57;5.15;;;7.70;99.90;;;;;;4981647;28;20401;-80
2022/11/05 09:00:13;;;;;;;9.45;5.28;;;7.70;99.90;;;;;;4983390;28;20065;-79
2022/11/05 09:02:39;;;;;;;10.10;5.40;;;7.80;99.90;;;;;;4981824;28;20041;-80
2022/11/05 09:05:05;;;;;;;9.63;5.38;;;7.90;99.90;;;;;;4988921;28;20030;-79
2022/11/05 09:07:30;;;;;;;9.93;5.43;;;8.00;99.90;;;;;;4979536;28;20098;-81
2022/11/05 09:09:56;;;;;;;8.88;4.90;;;8.00;99.90;;;;;;4997727;28;20097;-80
2022/11/05 09:12:21;;;;;;;8.15;4.97;;;8.10;99.90;;;;;;4997974;28;20030;-79
2022/11/05 09:14:47;;;;;;;10.18;5.18;;;8.80;99.90;;;;;;4981356;28;20042;-80
2022/11/05 09:17:18;;;;;;;9.85;4.90;;;8.20;99.90;;;;;;4968789;28;20056;-80
2022/11/05 09:19:44;;;;;;;9.68;4.78;;;8.30;99.90;;;;;;4982776;28;20050;-79
2022/11/05 09:22:11;;;;;;;11.45;5.05;;;8.30;99.90;;;;;;4984965;28;20097;-79
2022/11/05 09:24:38;;;;;;;8.07;4.72;;;8.40;99.90;;;;;;4981909;28;20060;-80
2022/11/05 09:27:04;;;;;;;10.55;4.95;;;8.40;99.90;;;;;;4988315;28;20042;-79
2022/11/05 09:29:30;;;;;;;10.48;4.60;;;8.50;99.90;;;;;;5000373;28;20042;-79
2022/11/05 09:31:55;;;;;;;10.98;5.20;;;8.50;99.90;;;;;;4984356;28;20089;-79
2022/11/05 09:34:21;;;;;;;9.95;5.15;;;8.60;99.90;;;;;;4981591;28;20042;-80
2022/11/05 09:36:47;;;;;;;8.68;4.60;;;8.70;99.90;;;;;;4986943;28;20113;-80
2022/11/05 09:39:12;;;;;;;9.50;4.57;;;8.70;99.90;;;;;;5006952;28;20183;-81
2022/11/05 09:41:39;;;;;;;10.27;4.55;;;8.80;99.90;;;;;;4984440;28;20056;-79
2022/11/05 09:44:13;;;;;;;8.02;4.30;;;8.80;99.90;;;;;;4983979;28;20429;-79
2022/11/05 09:46:44;;;;;;;7.97;4.82;;;8.90;99.90;;;;;;4996899;28;20042;-80
2022/11/05 09:49:29;;;;;;;6.72;4.40;;;9.00;99.90;;;;;;4999230;28;20046;-78
2022/11/05 09:51:57;;;;;;;7.70;4.03;;;9.00;99.90;;;;;;4984579;28;20343;-78
2022/11/05 09:54:27;;;;;;;9.32;4.13;;;9.10;99.90;;;;;;4989123;28;20546;-78
2022/11/05 09:56:54;;;;;;;7.88;3.70;;;9.10;99.90;;;;;;5003014;28;20034;-78
2022/11/05 09:59:32;;;;;;;8.63;3.95;;;9.30;99.90;;;;;;4985133;28;20429;-77
2022/11/05 10:02:08;;;;;;;7.20;4.03;;;9.30;99.90;;;;;;4981973;28;20514;-78
2022/11/05 10:04:34;;;;;;;8.27;4.00;;;9.40;99.90;;;;;;4994577;28;20121;-78
2022/11/05 10:07:04;;;;;;;10.35;3.70;;;9.50;99.90;;;;;;4983089;28;20168;-78
2022/11/05 10:09:39;;;;;;;6.57;4.15;;;9.60;99.90;;;;;;4987930;28;20033;-79
2022/11/05 10:12:19;;;;;;;9.05;3.92;;;9.60;99.90;;;;;;4991139;28;20402;-77
2022/11/05 10:15:11;;;;;;;12.73;4.28;;;9.70;99.90;;;;;;4992746;28;20378;-79
2022/11/05 10:17:40;;;;;;;6.85;3.92;;;9.70;99.90;;;;;;4994184;28;20041;-79
2022/11/05 10:20:35;;;;;;;11.68;4.22;;;9.80;99.90;;;;;;4988120;28;20152;-78
2022/11/05 10:23:21;;;;;;;8.23;3.72;;;9.80;99.90;;;;;;4989754;28;20494;-78
2022/11/05 10:25:53;;;;;;;7.55;3.50;;;9.90;99.90;;;;;;4991534;28;20049;-79
2022/11/05 10:28:21;;;;;;;8.15;3.50;;;10.00;99.90;;;;;;4988267;28;20443;-79
2022/11/05 10:30:59;;;;;;;7.93;3.15;;;10.30;99.90;;;;;;4991420;28;20405;-78
2022/11/05 10:33:31;;;;;;;7.53;3.35;;;10.20;99.90;;;;;;4991702;28;20072;-77
2022/11/05 10:36:02;;;;;;;8.77;3.13;;;10.30;99.90;;;;;;4994035;28;20060;-79
2022/11/05 10:38:28;;;;;;;6.53;3.08;;;10.40;99.90;;;;;;4987556;28;20038;-78
2022/11/05 10:41:27;;;;;;;7.30;2.80;;;10.40;99.90;;;;;;4989943;28;20049;-77
2022/11/05 10:44:15;;;;;;;6.53;2.78;;;10.50;99.90;;;;;;4990113;28;20037;-81
2022/11/05 10:46:48;;;;;;;4.28;2.67;;;10.60;99.90;;;;;;4991898;28;20045;-78
2022/11/05 10:49:52;;;;;;;7.85;2.40;;;10.60;99.90;;;;;;4993992;28;20041;-80
2022/11/05 10:52:24;;;;;;;9.70;3.28;;;10.70;99.90;;;;;;4973578;28;20092;-78
2022/11/05 10:54:52;;;;;;;7.15;3.33;;;10.80;99.90;;;;;;4993633;28;20042;-76
2022/11/05 10:57:31;;;;;;;5.07;2.78;;;10.80;99.90;;;;;;4989374;28;20053;-77
2022/11/05 11:00:15;;;;;;;4.88;2.60;;;10.80;99.90;;;;;;4993365;28;20045;-76
2022/11/05 11:02:54;;;;;;;10.95;3.22;;;10.90;99.90;;;;;;4993984;28;20041;-77
2022/11/05 11:05:34;;;;;;;7.72;2.92;;;10.90;99.90;;;;;;4983908;28;20049;-77
2022/11/05 11:08:05;;;;;;;6.82;3.15;;;11.00;99.90;;;;;;4993715;28;20100;-77
2022/11/05 11:10:38;;;;;;;7.10;3.30;;;11.20;99.90;;;;;;5011245;28;20069;-78
2022/11/05 11:13:05;;;;;;;7.30;3.30;;;11.30;99.90;;;;;;5005316;28;20128;-80
2022/11/05 11:15:35;;;;;;;10.85;3.80;;;11.30;99.90;;;;;;4990711;28;20122;-78
2022/11/05 11:18:23;;;;;;;8.10;3.60;;;11.40;99.90;;;;;;4994922;28;20030;-79
2022/11/05 11:20:49;;;;;;;7.07;3.33;;;11.40;99.90;;;;;;4990356;28;20041;-82
2022/11/05 11:23:16;;;;;;;9.73;3.38;;;11.30;99.90;;;;;;4974097;28;20038;-80
2022/11/05 11:25:50;;;;;;;9.20;3.20;;;11.30;99.90;;;;;;4992999;28;20117;-77
2022/11/05 11:28:42;;;;;;;6.88;2.95;;;11.30;99.90;;;;;;4985896;28;20148;-79
2022/11/05 11:31:13;;;;;;;7.57;3.07;;;11.30;99.90;;;;;;4987484;28;20117;-78
2022/11/05 11:33:41;;;;;;;7.00;3.35;;;11.20;99.90;;;;;;4989120;28;20044;-82
2022/11/05 11:36:10;;;;;;;8.27;3.10;;;11.10;99.90;;;;;;4989836;28;20112;-80
2022/11/05 11:38:37;;;;;;;7.07;3.33;;;11.10;99.90;;;;;;4993555;28;20124;-79
2022/11/05 11:41:08;;;;;;;10.82;3.88;;;11.00;99.90;;;;;;4985003;28;20521;-80
2022/11/05 11:43:36;;;;;;;9.48;3.63;;;11.00;99.90;;;;;;4994306;28;20049;-80
2022/11/05 11:46:04;;;;;;;9.18;3.85;;;11.00;99.90;;;;;;4995003;28;20498;-79
2022/11/05 11:48:33;;;;;;;8.65;3.50;;;11.00;99.90;;;;;;4994820;28;20117;-80
2022/11/05 11:51:13;;;;;;;5.13;3.38;;;10.90;99.90;;;;;;4992242;28;20494;-80
2022/11/05 11:53:40;;;;;;;7.10;3.55;;;11.00;99.90;;;;;;4989378;28;20117;-82
2022/11/05 11:56:18;;;;;;;10.10;3.85;;;11.20;99.90;;;;;;4986101;28;20046;-80
2022/11/05 11:58:54;;;;;;;8.10;3.40;;;10.90;99.90;;;;;;4992826;28;20521;-79
2022/11/05 12:01:56;;;;;;;10.60;3.95;;;10.90;99.90;;;;;;5003218;28;20048;-78
2022/11/05 12:04:35;;;;;;;7.18;4.28;;;10.90;99.90;;;;;;4903381;29;20411;-79
2022/11/05 12:07:28;;;;;;;7.13;3.58;;;10.90;99.90;;;;;;4971718;28;20107;-79
2022/11/05 12:10:08;;;;;;;10.02;3.80;;;11.00;99.90;;;;;;4990282;28;20038;-79
2022/11/05 12:13:04;;;;;;;7.50;3.88;;;11.00;99.90;;;;;;4973688;28;20116;-79
2022/11/05 12:15:43;;;;;;;9.82;4.68;;;11.00;99.90;;;;;;4986202;28;20064;-80
2022/11/05 12:18:31;;;;;;;6.47;4.00;;;11.00;99.90;;;;;;4984725;28;20038;-79
2022/11/05 12:21:35;;;;;;;7.03;3.63;;;11.00;99.90;;;;;;4991154;28;20041;-80
2022/11/05 12:24:15;;;;;;;9.20;4.20;;;11.10;99.90;;;;;;4988719;28;20091;-80
2022/11/05 12:27:04;;;;;;;9.75;3.55;;;11.10;99.90;;;;;;4987891;28;20029;-79
2022/11/05 12:29:58;;;;;;;10.98;3.90;;;11.10;99.90;;;;;;4991743;28;20042;-79
2022/11/05 12:32:35;;;;;;;8.95;4.20;;;11.10;99.90;;;;;;4993994;28;20042;-79
2022/11/05 12:35:35;;;;;;;7.68;3.90;;;11.20;99.90;;;;;;4977959;28;20034;-79
2022/11/05 12:38:18;;;;;;;7.43;3.40;;;11.30;99.90;;;;;;4987229;28;20037;-79
2022/11/05 12:40:50;;;;;;;10.85;3.42;;;11.40;99.90;;;;;;4991716;28;20092;-80
2022/11/05 12:43:29;;;;;;;9.52;3.05;;;11.30;99.90;;;;;;4993990;28;20525;-79
2022/11/05 12:46:10;;;;;;;9.65;3.13;;;11.40;99.90;;;;;;4993615;28;20045;-78
2022/11/05 12:49:09;;;;;;;8.43;2.83;;;11.50;99.90;;;;;;4993425;28;20034;-78
2022/11/05 12:51:58;;;;;;;23.00;4.30;;;11.50;99.90;;;;;;4993120;28;20080;-77
2022/11/05 12:54:30;;;;;;;6.90;3.08;;;11.50;99.90;;;;;;4991834;28;20065;-79
2022/11/05 12:57:02;;;;;;;6.43;3.42;;;11.60;99.90;;;;;;4992525;28;20517;-79
2022/11/05 12:59:40;;;;;;;11.35;4.28;;;11.60;99.90;;;;;;4975653;28;20042;-78
2022/11/05 13:02:28;;;;;;;9.65;4.07;;;11.70;99.90;;;;;;4977863;28;20064;-79
2022/11/05 13:05:05;;;;;;;10.48;4.70;;;11.70;99.90;;;;;;5009129;28;20081;-79
2022/11/05 13:07:34;;;;;;;10.15;4.68;;;11.70;99.90;;;;;;4990835;28;20557;-79
2022/11/05 13:10:18;;;;;;;11.02;4.75;;;11.70;99.90;;;;;;4977065;28;20038;-79
2022/11/05 13:12:52;;;;;;;9.48;4.60;;;11.70;99.90;;;;;;4987019;28;20030;-79
2022/11/05 13:15:28;;;;;;;10.70;4.82;;;11.70;99.90;;;;;;4998094;28;20053;-79
2022/11/05 13:18:12;;;;;;;9.98;4.80;;;11.70;99.90;;;;;;4997109;28;20045;-78
2022/11/05 13:20:43;;;;;;;11.60;5.18;;;11.60;99.90;;;;;;5000839;28;20117;-79
2022/11/05 13:23:38;;;;;;;12.13;5.38;;;11.60;99.90;;;;;;5010346;28;20060;-79
2022/11/05 13:26:30;;;;;;;14.02;5.10;;;11.60;99.90;;;;;;5001302;28;20049;-77
2022/11/05 13:29:10;;;;;;;9.00;4.93;;;11.60;99.90;;;;;;5000596;28;20067;-79
2022/11/05 13:31:50;;;;;;;8.18;4.72;;;11.60;99.90;;;;;;4987792;28;20520;-79
2022/11/05 13:34:16;;;;;;;10.70;5.18;;;11.50;99.90;;;;;;4987002;28;20045;-79
2022/11/05 13:39:47;;;;;;;10.32;5.80;;;11.50;99.90;;;;;;5000574;28;20461;-79
2022/11/05 13:42:49;;;;;;;10.68;5.53;;;11.50;99.90;;;;;;5002241;28;20722;-79
2022/11/05 13:46:05;;;;;;;11.40;5.78;;;11.50;99.90;;;;;;5014995;28;20502;-78
2022/11/05 13:48:55;;;;;;;13.43;5.40;;;11.50;99.90;;;;;;4930451;29;20051;-78
2022/11/05 13:51:46;;;;;;;11.25;5.70;;;11.40;99.90;;;;;;5005599;28;20034;-78
2022/11/05 13:54:57;;;;;;;12.85;5.18;;;11.40;99.90;;;;;;5001712;28;20121;-78
2022/11/05 13:57:42;;;;;;;9.95;5.30;;;11.40;99.90;;;;;;4975923;28;20050;-78
2022/11/05 14:00:07;;;;;;;9.77;4.97;;;11.30;99.90;;;;;;4996985;28;20399;-78
2022/11/05 14:02:55;;;;;;;8.93;5.03;;;11.30;99.90;;;;;;5000884;28;20030;-77
2022/11/05 14:05:20;;;;;;;11.68;5.10;;;11.30;99.90;;;;;;4995427;28;20096;-78